sensor_id;sensor_type;location;lat;lon;timestamp;pressure;altitude;pressure_sealevel;temperature;humidity
48874;BME280;35220;46.204;5.220;2022-09-17T00:00:22;98603.88;;;13.15;67.60
48874;BME280;35220;46.204;5.220;2022-09-17T00:05:22;98608.06;;;13.11;67.39
48874;BME280;35220;46.204;5.220;2022-09-17T00:10:23;98610.44;;;13.02;68.10
48874;BME280;35220;46.204;5.220;2022-09-17T00:15:24;98609.13;;;13.05;68.09
48874;BME280;35220;46.204;5.220;2022-09-17T00:20:25;98613.03;;;13.07;67.76
48874;BME280;35220;46.204;5.220;2022-09-17T00:25:26;98615.41;;;12.93;68.23
48874;BME280;35220;46.204;5.220;2022-09-17T00:30:26;98615.41;;;12.88;68.43
48874;BME280;35220;46.204;5.220;2022-09-17T00:35:27;98598.41;;;12.86;68.35
48874;BME280;35220;46.204;5.220;2022-09-17T00:40:27;98596.59;;;12.81;68.54
48874;BME280;35220;46.204;5.220;2022-09-17T00:45:28;98610.97;;;12.79;69.15
48874;BME280;35220;46.204;5.220;2022-09-17T00:50:38;98614.91;;;12.76;69.21
48874;BME280;35220;46.204;5.220;2022-09-17T00:55:46;98628.75;;;12.61;69.92
48874;BME280;35220;46.204;5.220;2022-09-17T01:00:47;98623.78;;;12.65;69.07
48874;BME280;35220;46.204;5.220;2022-09-17T01:22:02;98619.88;;;12.83;69.12
48874;BME280;35220;46.204;5.220;2022-09-17T01:32:47;98643.91;;;12.54;70.76
48874;BME280;35220;46.204;5.220;2022-09-17T01:43:26;98667.41;;;12.44;70.48
48874;BME280;35220;46.204;5.220;2022-09-17T01:48:32;98675.25;;;12.44;70.14
48874;BME280;35220;46.204;5.220;2022-09-17T01:53:40;98681.03;;;12.51;70.42
48874;BME280;35220;46.204;5.220;2022-09-17T01:58:48;98683.34;;;12.37;71.84
48874;BME280;35220;46.204;5.220;2022-09-17T02:04:03;98687.25;;;12.45;71.26
48874;BME280;35220;46.204;5.220;2022-09-17T02:09:25;98688.06;;;12.40;72.04
48874;BME280;35220;46.204;5.220;2022-09-17T02:14:32;98687.25;;;12.40;71.17
48874;BME280;35220;46.204;5.220;2022-09-17T02:19:35;98683.81;;;12.24;72.51
48874;BME280;35220;46.204;5.220;2022-09-17T02:25:00;98684.09;;;12.27;72.74
48874;BME280;35220;46.204;5.220;2022-09-17T02:30:04;98681.19;;;12.18;72.36
48874;BME280;35220;46.204;5.220;2022-09-17T02:35:05;98681.94;;;12.09;73.37
48874;BME280;35220;46.204;5.220;2022-09-17T02:40:07;98691.34;;;12.15;73.11
48874;BME280;35220;46.204;5.220;2022-09-17T03:00:37;98701.69;;;11.89;73.40
48874;BME280;35220;46.204;5.220;2022-09-17T03:05:40;98703.44;;;11.73;73.87
48874;BME280;35220;46.204;5.220;2022-09-17T03:10:42;98716.72;;;11.72;73.66
48874;BME280;35220;46.204;5.220;2022-09-17T03:15:43;98724.03;;;11.70;73.32
48874;BME280;35220;46.204;5.220;2022-09-17T03:20:44;98721.41;;;11.70;72.86
48874;BME280;35220;46.204;5.220;2022-09-17T03:25:46;98736.78;;;11.66;73.04
48874;BME280;35220;46.204;5.220;2022-09-17T03:30:46;98726.88;;;11.68;72.45
48874;BME280;35220;46.204;5.220;2022-09-17T03:35:46;98728.75;;;11.73;72.02
48874;BME280;35220;46.204;5.220;2022-09-17T03:41:00;98730.81;;;11.66;72.59
48874;BME280;35220;46.204;5.220;2022-09-17T03:46:01;98741.50;;;11.64;72.06
48874;BME280;35220;46.204;5.220;2022-09-17T03:51:03;98753.69;;;11.53;72.60
48874;BME280;35220;46.204;5.220;2022-09-17T03:56:05;98752.06;;;11.47;72.52
48874;BME280;35220;46.204;5.220;2022-09-17T04:01:05;98754.09;;;11.40;72.40
48874;BME280;35220;46.204;5.220;2022-09-17T04:06:06;98769.94;;;11.28;73.47
48874;BME280;35220;46.204;5.220;2022-09-17T04:11:06;98772.44;;;11.18;73.60
48874;BME280;35220;46.204;5.220;2022-09-17T04:16:07;98768.00;;;11.18;73.53
48874;BME280;35220;46.204;5.220;2022-09-17T04:21:07;98759.84;;;11.10;73.81
48874;BME280;35220;46.204;5.220;2022-09-17T04:26:08;98769.16;;;11.00;73.52
48874;BME280;35220;46.204;5.220;2022-09-17T04:31:08;98792.03;;;10.93;73.37
48874;BME280;35220;46.204;5.220;2022-09-17T04:36:09;98793.88;;;10.93;73.04
48874;BME280;35220;46.204;5.220;2022-09-17T04:41:09;98804.53;;;10.91;73.30
48874;BME280;35220;46.204;5.220;2022-09-17T04:46:09;98799.38;;;10.96;72.78
48874;BME280;35220;46.204;5.220;2022-09-17T04:51:10;98806.94;;;10.98;72.60
48874;BME280;35220;46.204;5.220;2022-09-17T04:56:10;98816.72;;;10.86;73.10
48874;BME280;35220;46.204;5.220;2022-09-17T05:01:10;98814.66;;;10.88;72.64
48874;BME280;35220;46.204;5.220;2022-09-17T05:06:12;98823.38;;;10.76;72.93
48874;BME280;35220;46.204;5.220;2022-09-17T05:11:13;98823.09;;;10.73;73.89
48874;BME280;35220;46.204;5.220;2022-09-17T05:16:13;98827.75;;;10.71;73.72
48874;BME280;35220;46.204;5.220;2022-09-17T05:21:14;98837.81;;;10.62;73.77
48874;BME280;35220;46.204;5.220;2022-09-17T05:26:14;98833.03;;;10.54;74.05
48874;BME280;35220;46.204;5.220;2022-09-17T05:31:15;98836.13;;;10.51;73.86
48874;BME280;35220;46.204;5.220;2022-09-17T05:36:15;98840.31;;;10.52;73.94
48874;BME280;35220;46.204;5.220;2022-09-17T05:41:16;98858.50;;;10.46;74.47
48874;BME280;35220;46.204;5.220;2022-09-17T05:46:16;98865.25;;;10.48;74.75
48874;BME280;35220;46.204;5.220;2022-09-17T05:51:16;98861.56;;;10.43;74.55
48874;BME280;35220;46.204;5.220;2022-09-17T05:56:17;98877.03;;;10.50;74.14
48874;BME280;35220;46.204;5.220;2022-09-17T06:01:18;98887.78;;;10.37;74.34
48874;BME280;35220;46.204;5.220;2022-09-17T06:06:18;98887.59;;;10.26;74.03
48874;BME280;35220;46.204;5.220;2022-09-17T06:11:19;98883.03;;;10.34;73.69
48874;BME280;35220;46.204;5.220;2022-09-17T06:16:20;98888.81;;;10.36;73.11
48874;BME280;35220;46.204;5.220;2022-09-17T06:21:21;98893.69;;;10.49;72.32
48874;BME280;35220;46.204;5.220;2022-09-17T06:26:22;98907.59;;;10.38;70.98
48874;BME280;35220;46.204;5.220;2022-09-17T06:31:22;98898.88;;;10.49;71.24
48874;BME280;35220;46.204;5.220;2022-09-17T06:36:23;98915.00;;;10.46;70.82
48874;BME280;35220;46.204;5.220;2022-09-17T06:41:23;98914.28;;;10.51;70.46
48874;BME280;35220;46.204;5.220;2022-09-17T06:46:24;98920.28;;;10.51;70.10
48874;BME280;35220;46.204;5.220;2022-09-17T06:51:24;98918.72;;;10.50;69.77
48874;BME280;35220;46.204;5.220;2022-09-17T06:56:24;98913.31;;;10.57;69.36
48874;BME280;35220;46.204;5.220;2022-09-17T07:01:25;98911.22;;;10.76;69.01
48874;BME280;35220;46.204;5.220;2022-09-17T07:06:25;98912.06;;;10.81;67.62
48874;BME280;35220;46.204;5.220;2022-09-17T07:11:26;98909.66;;;10.97;66.89
48874;BME280;35220;46.204;5.220;2022-09-17T07:16:28;98913.22;;;10.91;67.30
48874;BME280;35220;46.204;5.220;2022-09-17T07:21:31;98919.81;;;11.20;66.43
48874;BME280;35220;46.204;5.220;2022-09-17T07:26:31;98916.31;;;11.37;65.79
48874;BME280;35220;46.204;5.220;2022-09-17T07:31:32;98921.84;;;11.68;64.09
48874;BME280;35220;46.204;5.220;2022-09-17T07:36:32;98928.34;;;11.38;64.88
48874;BME280;35220;46.204;5.220;2022-09-17T07:41:33;98939.38;;;11.45;64.62
48874;BME280;35220;46.204;5.220;2022-09-17T07:46:34;98934.84;;;11.63;64.04
48874;BME280;35220;46.204;5.220;2022-09-17T07:51:34;98931.13;;;11.86;63.78
48874;BME280;35220;46.204;5.220;2022-09-17T07:56:35;98935.59;;;11.85;63.34
48874;BME280;35220;46.204;5.220;2022-09-17T08:01:35;98933.06;;;11.68;62.76
48874;BME280;35220;46.204;5.220;2022-09-17T08:06:37;98939.72;;;11.54;62.80
48874;BME280;35220;46.204;5.220;2022-09-17T08:11:37;98929.91;;;11.93;62.88
48874;BME280;35220;46.204;5.220;2022-09-17T08:16:38;98935.69;;;12.28;62.17
48874;BME280;35220;46.204;5.220;2022-09-17T08:21:41;98925.13;;;11.85;63.22
48874;BME280;35220;46.204;5.220;2022-09-17T08:26:41;98936.81;;;11.77;63.55
48874;BME280;35220;46.204;5.220;2022-09-17T08:31:42;98936.72;;;11.67;62.95
48874;BME280;35220;46.204;5.220;2022-09-17T08:36:42;98939.28;;;11.62;63.51
48874;BME280;35220;46.204;5.220;2022-09-17T08:42:45;98947.66;;;11.64;63.49
48874;BME280;35220;46.204;5.220;2022-09-17T08:47:33;98960.53;;;11.71;63.23
48874;BME280;35220;46.204;5.220;2022-09-17T08:52:58;98967.34;;;11.77;62.39
48874;BME280;35220;46.204;5.220;2022-09-17T09:03:36;98970.81;;;12.15;61.82
48874;BME280;35220;46.204;5.220;2022-09-17T09:08:44;98980.72;;;12.45;58.97
48874;BME280;35220;46.204;5.220;2022-09-17T09:13:55;98983.47;;;12.66;58.58
48874;BME280;35220;46.204;5.220;2022-09-17T09:19:14;98995.47;;;12.62;60.16
48874;BME280;35220;46.204;5.220;2022-09-17T09:24:25;99001.59;;;12.40;60.06
48874;BME280;35220;46.204;5.220;2022-09-17T09:34:32;98992.31;;;13.02;58.96
48874;BME280;35220;46.204;5.220;2022-09-17T09:39:34;98989.66;;;13.60;57.44
48874;BME280;35220;46.204;5.220;2022-09-17T09:44:35;98988.91;;;13.75;55.64
48874;BME280;35220;46.204;5.220;2022-09-17T09:49:59;98991.75;;;13.63;53.56
48874;BME280;35220;46.204;5.220;2022-09-17T10:05:22;98987.63;;;14.39;54.10
48874;BME280;35220;46.204;5.220;2022-09-17T10:10:23;98991.81;;;14.10;54.57
48874;BME280;35220;46.204;5.220;2022-09-17T10:15:27;98988.94;;;14.16;53.46
48874;BME280;35220;46.204;5.220;2022-09-17T10:20:28;98992.84;;;14.14;52.90
48874;BME280;35220;46.204;5.220;2022-09-17T10:25:33;98995.75;;;14.27;53.18
48874;BME280;35220;46.204;5.220;2022-09-17T10:30:34;98999.44;;;14.26;53.10
48874;BME280;35220;46.204;5.220;2022-09-17T10:35:34;98996.78;;;14.62;53.45
48874;BME280;35220;46.204;5.220;2022-09-17T10:40:35;98992.78;;;14.91;53.32
48874;BME280;35220;46.204;5.220;2022-09-17T10:45:38;98995.94;;;14.88;52.95
48874;BME280;35220;46.204;5.220;2022-09-17T10:50:47;98997.06;;;14.66;52.32
48874;BME280;35220;46.204;5.220;2022-09-17T10:56:16;98989.13;;;14.81;52.56
48874;BME280;35220;46.204;5.220;2022-09-17T11:01:52;98978.41;;;14.73;51.61
48874;BME280;35220;46.204;5.220;2022-09-17T11:07:22;98982.31;;;14.91;51.62
48874;BME280;35220;46.204;5.220;2022-09-17T11:34:41;98976.41;;;15.74;48.18
48874;BME280;35220;46.204;5.220;2022-09-17T11:40:15;98975.31;;;15.81;48.93
48874;BME280;35220;46.204;5.220;2022-09-17T11:45:23;98988.91;;;15.43;49.45
48874;BME280;35220;46.204;5.220;2022-09-17T11:55:31;98973.81;;;16.04;49.29
48874;BME280;35220;46.204;5.220;2022-09-17T12:00:39;98975.94;;;16.02;48.54
48874;BME280;35220;46.204;5.220;2022-09-17T12:05:54;98981.03;;;15.88;48.18
48874;BME280;35220;46.204;5.220;2022-09-17T12:11:10;98980.13;;;16.08;47.39
48874;BME280;35220;46.204;5.220;2022-09-17T12:16:58;98976.09;;;16.98;45.19
48874;BME280;35220;46.204;5.220;2022-09-17T12:22:07;98976.38;;;17.97;42.16
48874;BME280;35220;46.204;5.220;2022-09-17T12:59:12;98961.16;;;17.75;43.18
48874;BME280;35220;46.204;5.220;2022-09-17T13:21:13;98935.00;;;23.85;32.15
48874;BME280;35220;46.204;5.220;2022-09-17T13:26:19;98953.00;;;22.35;35.44
48874;BME280;35220;46.204;5.220;2022-09-17T13:36:53;98935.53;;;25.67;28.51
48874;BME280;35220;46.204;5.220;2022-09-17T13:42:02;98935.81;;;26.37;29.23
48874;BME280;35220;46.204;5.220;2022-09-17T13:47:18;98931.59;;;26.52;27.92
48874;BME280;35220;46.204;5.220;2022-09-17T13:52:43;98934.06;;;25.00;28.59
48874;BME280;35220;46.204;5.220;2022-09-17T13:57:48;98938.13;;;23.66;32.00
48874;BME280;35220;46.204;5.220;2022-09-17T14:02:49;98939.53;;;21.58;34.05
48874;BME280;35220;46.204;5.220;2022-09-17T14:07:51;98936.22;;;24.70;30.33
48874;BME280;35220;46.204;5.220;2022-09-17T14:12:54;98931.81;;;25.27;30.26
48874;BME280;35220;46.204;5.220;2022-09-17T14:17:55;98931.63;;;25.92;28.77
48874;BME280;35220;46.204;5.220;2022-09-17T14:22:59;98937.09;;;25.39;28.29
48874;BME280;35220;46.204;5.220;2022-09-17T14:28:07;98928.09;;;24.91;29.44
48874;BME280;35220;46.204;5.220;2022-09-17T14:33:15;98931.47;;;25.57;29.61
48874;BME280;35220;46.204;5.220;2022-09-17T14:38:48;98925.44;;;26.68;25.92
48874;BME280;35220;46.204;5.220;2022-09-17T14:44:03;98923.50;;;26.84;26.97
48874;BME280;35220;46.204;5.220;2022-09-17T14:54:25;98930.53;;;26.41;27.80
48874;BME280;35220;46.204;5.220;2022-09-17T15:04:41;98929.66;;;24.67;28.31
48874;BME280;35220;46.204;5.220;2022-09-17T15:09:42;98922.63;;;25.40;27.16
48874;BME280;35220;46.204;5.220;2022-09-17T15:14:45;98925.75;;;25.42;27.42
48874;BME280;35220;46.204;5.220;2022-09-17T15:19:52;98921.22;;;23.28;29.19
48874;BME280;35220;46.204;5.220;2022-09-17T15:40:15;98930.00;;;21.40;32.04
48874;BME280;35220;46.204;5.220;2022-09-17T15:45:27;98927.00;;;20.98;31.20
48874;BME280;35220;46.204;5.220;2022-09-17T15:50:31;98924.78;;;20.42;32.56
48874;BME280;35220;46.204;5.220;2022-09-17T15:55:35;98928.13;;;20.57;32.79
48874;BME280;35220;46.204;5.220;2022-09-17T16:00:36;98930.09;;;20.42;33.18
48874;BME280;35220;46.204;5.220;2022-09-17T16:05:45;98927.56;;;20.37;33.02
48874;BME280;35220;46.204;5.220;2022-09-17T16:10:46;98927.81;;;20.18;33.53
48874;BME280;35220;46.204;5.220;2022-09-17T16:15:46;98929.69;;;19.72;34.45
48874;BME280;35220;46.204;5.220;2022-09-17T16:20:47;98937.66;;;20.04;34.49
48874;BME280;35220;46.204;5.220;2022-09-17T16:25:48;98944.31;;;19.92;34.83
48874;BME280;35220;46.204;5.220;2022-09-17T16:30:49;98940.94;;;19.78;35.58
48874;BME280;35220;46.204;5.220;2022-09-17T16:35:49;98938.41;;;19.96;36.04
48874;BME280;35220;46.204;5.220;2022-09-17T16:40:50;98932.84;;;19.97;36.39
48874;BME280;35220;46.204;5.220;2022-09-17T16:46:00;98924.84;;;20.60;35.19
48874;BME280;35220;46.204;5.220;2022-09-17T16:51:11;98930.25;;;20.77;35.03
48874;BME280;35220;46.204;5.220;2022-09-17T16:56:13;98938.28;;;20.63;35.18
48874;BME280;35220;46.204;5.220;2022-09-17T17:01:14;98934.69;;;20.28;35.14
48874;BME280;35220;46.204;5.220;2022-09-17T17:06:19;98939.00;;;20.15;35.55
48874;BME280;35220;46.204;5.220;2022-09-17T17:11:20;98939.09;;;19.65;36.58
48874;BME280;35220;46.204;5.220;2022-09-17T17:16:20;98952.97;;;19.48;36.74
48874;BME280;35220;46.204;5.220;2022-09-17T17:21:21;98949.97;;;19.41;36.82
48874;BME280;35220;46.204;5.220;2022-09-17T17:26:21;98943.94;;;19.26;36.76
48874;BME280;35220;46.204;5.220;2022-09-17T17:31:22;98948.41;;;19.26;36.79
48874;BME280;35220;46.204;5.220;2022-09-17T17:36:22;98946.03;;;18.46;38.09
48874;BME280;35220;46.204;5.220;2022-09-17T17:41:23;98945.44;;;17.83;38.84
48874;BME280;35220;46.204;5.220;2022-09-17T17:46:26;98948.13;;;17.45;38.60
48874;BME280;35220;46.204;5.220;2022-09-17T17:51:26;98954.63;;;17.10;39.31
48874;BME280;35220;46.204;5.220;2022-09-17T17:56:27;98962.44;;;16.96;39.41
48874;BME280;35220;46.204;5.220;2022-09-17T18:01:29;98964.13;;;16.87;39.56
48874;BME280;35220;46.204;5.220;2022-09-17T18:06:30;98962.06;;;16.54;40.58
48874;BME280;35220;46.204;5.220;2022-09-17T18:11:32;98966.00;;;16.28;40.86
48874;BME280;35220;46.204;5.220;2022-09-17T18:16:32;98963.13;;;15.95;41.95
48874;BME280;35220;46.204;5.220;2022-09-17T18:21:33;98972.16;;;15.84;42.24
48874;BME280;35220;46.204;5.220;2022-09-17T18:26:33;98977.69;;;15.77;42.27
48874;BME280;35220;46.204;5.220;2022-09-17T18:31:34;98982.72;;;15.68;42.67
48874;BME280;35220;46.204;5.220;2022-09-17T18:36:37;98986.50;;;15.52;43.11
48874;BME280;35220;46.204;5.220;2022-09-17T18:41:39;98991.59;;;15.28;44.16
48874;BME280;35220;46.204;5.220;2022-09-17T18:46:40;98999.81;;;15.06;44.52
48874;BME280;35220;46.204;5.220;2022-09-17T18:51:41;99006.38;;;15.08;44.48
48874;BME280;35220;46.204;5.220;2022-09-17T18:56:42;99012.44;;;15.04;44.74
48874;BME280;35220;46.204;5.220;2022-09-17T19:01:42;99018.19;;;15.00;44.74
48874;BME280;35220;46.204;5.220;2022-09-17T19:06:42;99010.06;;;15.07;44.86
48874;BME280;35220;46.204;5.220;2022-09-17T19:11:43;99016.59;;;15.10;44.74
48874;BME280;35220;46.204;5.220;2022-09-17T19:16:43;99028.47;;;14.87;45.59
48874;BME280;35220;46.204;5.220;2022-09-17T19:21:43;99025.59;;;14.78;46.36
48874;BME280;35220;46.204;5.220;2022-09-17T19:26:44;99022.22;;;14.62;46.65
48874;BME280;35220;46.204;5.220;2022-09-17T19:31:45;99037.16;;;14.41;47.62
48874;BME280;35220;46.204;5.220;2022-09-17T19:36:45;99037.69;;;14.53;46.91
48874;BME280;35220;46.204;5.220;2022-09-17T19:41:46;99038.19;;;14.55;46.83
48874;BME280;35220;46.204;5.220;2022-09-17T19:46:46;99044.47;;;14.49;47.24
48874;BME280;35220;46.204;5.220;2022-09-17T19:51:49;99048.19;;;14.48;47.36
48874;BME280;35220;46.204;5.220;2022-09-17T19:56:49;99050.00;;;14.48;47.37
48874;BME280;35220;46.204;5.220;2022-09-17T20:01:49;99042.66;;;14.44;47.32
48874;BME280;35220;46.204;5.220;2022-09-17T20:06:50;99053.66;;;14.36;48.14
48874;BME280;35220;46.204;5.220;2022-09-17T20:11:50;99059.97;;;14.30;48.48
48874;BME280;35220;46.204;5.220;2022-09-17T20:16:51;99072.25;;;14.24;48.70
48874;BME280;35220;46.204;5.220;2022-09-17T20:21:51;99065.44;;;14.18;49.30
48874;BME280;35220;46.204;5.220;2022-09-17T20:26:51;99069.84;;;13.92;50.58
48874;BME280;35220;46.204;5.220;2022-09-17T20:31:52;99068.53;;;13.84;50.83
48874;BME280;35220;46.204;5.220;2022-09-17T20:36:52;99067.25;;;13.97;49.98
48874;BME280;35220;46.204;5.220;2022-09-17T20:41:53;99068.56;;;13.90;50.53
48874;BME280;35220;46.204;5.220;2022-09-17T20:46:53;99068.00;;;13.82;50.88
48874;BME280;35220;46.204;5.220;2022-09-17T20:51:54;99068.19;;;13.60;52.54
48874;BME280;35220;46.204;5.220;2022-09-17T20:56:55;99068.41;;;13.43;51.84
48874;BME280;35220;46.204;5.220;2022-09-17T21:01:56;99082.97;;;13.29;52.38
48874;BME280;35220;46.204;5.220;2022-09-17T21:06:56;99076.81;;;13.08;52.72
48874;BME280;35220;46.204;5.220;2022-09-17T21:11:57;99085.91;;;13.00;53.17
48874;BME280;35220;46.204;5.220;2022-09-17T21:16:57;99083.28;;;12.95;53.48
48874;BME280;35220;46.204;5.220;2022-09-17T21:21:57;99081.94;;;12.92;54.18
48874;BME280;35220;46.204;5.220;2022-09-17T21:26:58;99080.59;;;12.85;53.67
48874;BME280;35220;46.204;5.220;2022-09-17T21:31:58;99079.22;;;12.77;53.34
48874;BME280;35220;46.204;5.220;2022-09-17T21:36:59;99083.13;;;12.74;53.61
48874;BME280;35220;46.204;5.220;2022-09-17T21:42:02;99077.13;;;12.74;53.83
48874;BME280;35220;46.204;5.220;2022-09-17T21:47:03;99079.22;;;12.77;53.94
48874;BME280;35220;46.204;5.220;2022-09-17T21:52:03;99081.59;;;12.79;54.27
48874;BME280;35220;46.204;5.220;2022-09-17T21:57:04;99071.03;;;12.63;55.09
48874;BME280;35220;46.204;5.220;2022-09-17T22:02:04;99074.38;;;12.59;55.24
48874;BME280;35220;46.204;5.220;2022-09-17T22:07:05;99071.97;;;12.52;55.25
48874;BME280;35220;46.204;5.220;2022-09-17T22:12:05;99072.16;;;12.40;55.89
48874;BME280;35220;46.204;5.220;2022-09-17T22:17:06;99072.16;;;12.40;55.47
48874;BME280;35220;46.204;5.220;2022-09-17T22:22:07;99072.66;;;12.37;55.92
48874;BME280;35220;46.204;5.220;2022-09-17T22:27:07;99076.53;;;12.34;55.52
48874;BME280;35220;46.204;5.220;2022-09-17T22:32:07;99068.25;;;12.43;55.24
48874;BME280;35220;46.204;5.220;2022-09-17T22:37:08;99059.97;;;12.24;56.33
48874;BME280;35220;46.204;5.220;2022-09-17T22:42:08;99056.94;;;12.05;57.24
48874;BME280;35220;46.204;5.220;2022-09-17T22:47:08;99060.66;;;11.87;57.35
48874;BME280;35220;46.204;5.220;2022-09-17T22:52:09;99060.53;;;11.76;57.33
48874;BME280;35220;46.204;5.220;2022-09-17T22:57:09;99073.78;;;11.70;57.40
48874;BME280;35220;46.204;5.220;2022-09-17T23:02:09;99070.25;;;11.59;58.30
48874;BME280;35220;46.204;5.220;2022-09-17T23:07:10;99066.88;;;11.58;57.93
48874;BME280;35220;46.204;5.220;2022-09-17T23:12:10;99063.69;;;11.56;58.41
48874;BME280;35220;46.204;5.220;2022-09-17T23:17:11;99059.09;;;11.41;59.68
48874;BME280;35220;46.204;5.220;2022-09-17T23:22:11;99054.47;;;11.27;59.91
48874;BME280;35220;46.204;5.220;2022-09-17T23:27:11;99059.66;;;11.04;61.28
48874;BME280;35220;46.204;5.220;2022-09-17T23:32:12;99064.72;;;10.94;61.95
48874;BME280;35220;46.204;5.220;2022-09-17T23:37:12;99051.88;;;10.88;61.72
48874;BME280;35220;46.204;5.220;2022-09-17T23:42:13;99055.41;;;10.81;61.58
48874;BME280;35220;46.204;5.220;2022-09-17T23:47:14;99053.16;;;10.68;63.75
48874;BME280;35220;46.204;5.220;2022-09-17T23:52:14;99059.06;;;10.63;63.06
48874;BME280;35220;46.204;5.220;2022-09-17T23:57:15;99055.50;;;10.53;64.12
